SJV616 WARR-WALL
Flight info
| Callsign | SJV616 |
|---|---|
| Flight time | 1h 15m |
| Altitude | 35000 |
| Route | RAMPY T13 IKAPI T11 KAYAN |
| Aircraft | A320/M-SDE3FGHIRWY/LB1 |
Departure
| Time | 2026-05-08 13:14 |
|---|---|
| Airport | Juanda International Airport (WARR) |
Arrival
| Time | 2026-05-08 14:29 |
|---|---|
| Airport | Sultan Aji Muhammad Sulaiman Sepinggan International Airport (WALL) |
| Time | Latitude | Longitude | Altitude | Speed | Heading |
|---|---|---|---|---|---|
| 2026-05-08 12:50 | -7.37570 | 112.79347 | 19 ft | 0 kts | 9° |
| 2026-05-08 13:01 | -7.37571 | 112.79347 | 19 ft | 0 kts | 9° |
| 2026-05-08 13:02 | -7.37585 | 112.79345 | 19 ft | 2 kts | 8° |
| 2026-05-08 13:02 | -7.37599 | 112.79343 | 19 ft | 2 kts | 9° |
| 2026-05-08 13:02 | -7.37609 | 112.79341 | 19 ft | 1 kts | 9° |
| 2026-05-08 13:02 | -7.37624 | 112.79340 | 19 ft | 2 kts | 350° |
| 2026-05-08 13:03 | -7.37638 | 112.79344 | 19 ft | 2 kts | 334° |
| 2026-05-08 13:03 | -7.37650 | 112.79352 | 19 ft | 2 kts | 317° |
| 2026-05-08 13:03 | -7.37660 | 112.79363 | 19 ft | 2 kts | 301° |
| 2026-05-08 13:03 | -7.37666 | 112.79378 | 19 ft | 1 kts | 283° |
| 2026-05-08 13:04 | -7.37668 | 112.79385 | 19 ft | 1 kts | 276° |
| 2026-05-08 13:04 | -7.37668 | 112.79387 | 19 ft | 0 kts | 278° |
| 2026-05-08 13:06 | -7.37668 | 112.79386 | 19 ft | 0 kts | 278° |
| 2026-05-08 13:07 | -7.37663 | 112.79354 | 19 ft | 7 kts | 278° |
| 2026-05-08 13:07 | -7.37652 | 112.79282 | 19 ft | 12 kts | 280° |
| 2026-05-08 13:07 | -7.37637 | 112.79193 | 19 ft | 13 kts | 279° |
| 2026-05-08 13:07 | -7.37628 | 112.79123 | 19 ft | 9 kts | 260° |
| 2026-05-08 13:08 | -7.37686 | 112.79094 | 19 ft | 10 kts | 188° |
| 2026-05-08 13:08 | -7.37765 | 112.79082 | 19 ft | 12 kts | 189° |
| 2026-05-08 13:08 | -7.37837 | 112.79067 | 19 ft | 8 kts | 208° |
| 2026-05-08 13:08 | -7.37860 | 112.79000 | 19 ft | 13 kts | 278° |
| 2026-05-08 13:09 | -7.37849 | 112.78933 | 19 ft | 15 kts | 279° |
| 2026-05-08 13:09 | -7.37843 | 112.78896 | 19 ft | 16 kts | 279° |
| 2026-05-08 13:09 | -7.37825 | 112.78786 | 19 ft | 16 kts | 279° |
| 2026-05-08 13:09 | -7.37805 | 112.78666 | 19 ft | 16 kts | 279° |
| 2026-05-08 13:10 | -7.37785 | 112.78541 | 19 ft | 17 kts | 279° |
| 2026-05-08 13:10 | -7.37765 | 112.78416 | 19 ft | 17 kts | 279° |
| 2026-05-08 13:10 | -7.37745 | 112.78294 | 19 ft | 17 kts | 279° |
| 2026-05-08 13:10 | -7.37725 | 112.78172 | 19 ft | 17 kts | 279° |
| 2026-05-08 13:11 | -7.37705 | 112.78048 | 19 ft | 18 kts | 279° |
| 2026-05-08 13:11 | -7.37685 | 112.77921 | 19 ft | 18 kts | 279° |
| 2026-05-08 13:11 | -7.37664 | 112.77796 | 19 ft | 18 kts | 279° |
| 2026-05-08 13:11 | -7.37643 | 112.77664 | 19 ft | 18 kts | 279° |
| 2026-05-08 13:12 | -7.37623 | 112.77537 | 19 ft | 18 kts | 279° |
| 2026-05-08 13:12 | -7.37609 | 112.77447 | 19 ft | 9 kts | 278° |
| 2026-05-08 13:12 | -7.37637 | 112.77387 | 19 ft | 11 kts | 210° |
| 2026-05-08 13:12 | -7.37727 | 112.77371 | 19 ft | 13 kts | 184° |
| 2026-05-08 13:13 | -7.37772 | 112.77375 | 19 ft | 4 kts | 128° |
| 2026-05-08 13:13 | -7.37777 | 112.77393 | 19 ft | 2 kts | 98° |
| 2026-05-08 13:13 | -7.37777 | 112.77396 | 19 ft | 0 kts | 98° |
| 2026-05-08 13:13 | -7.37778 | 112.77404 | 19 ft | 2 kts | 98° |
| 2026-05-08 13:14 | -7.37797 | 112.77527 | 19 ft | 51 kts | 99° |
| 2026-05-08 13:14 | -7.37901 | 112.78174 | 20 ft | 129 kts | 99° |
| 2026-05-08 13:14 | -7.38071 | 112.79237 | 356 ft | 160 kts | 99° |
| 2026-05-08 13:14 | -7.38252 | 112.80358 | 1120 ft | 164 kts | 99° |
| 2026-05-08 13:15 | -7.38435 | 112.81486 | 1929 ft | 162 kts | 99° |
| 2026-05-08 13:15 | -7.38628 | 112.82677 | 2411 ft | 176 kts | 99° |
| 2026-05-08 13:15 | -7.38836 | 112.83958 | 2852 ft | 193 kts | 99° |
| 2026-05-08 13:15 | -7.39071 | 112.85411 | 3252 ft | 217 kts | 99° |
| 2026-05-08 13:16 | -7.39326 | 112.86990 | 3773 ft | 236 kts | 99° |
| 2026-05-08 13:16 | -7.39606 | 112.88726 | 4331 ft | 254 kts | 99° |
| 2026-05-08 13:16 | -7.39897 | 112.90552 | 4993 ft | 268 kts | 97° |
| 2026-05-08 13:16 | -7.39776 | 112.92434 | 5859 ft | 272 kts | 72° |
| 2026-05-08 13:17 | -7.38865 | 112.94009 | 6708 ft | 273 kts | 45° |
| 2026-05-08 13:17 | -7.37341 | 112.95000 | 7512 ft | 276 kts | 21° |
| 2026-05-08 13:17 | -7.35659 | 112.95607 | 8286 ft | 279 kts | 18° |
| 2026-05-08 13:17 | -7.33780 | 112.96237 | 9087 ft | 283 kts | 18° |
| 2026-05-08 13:18 | -7.31878 | 112.96878 | 9871 ft | 287 kts | 18° |
| 2026-05-08 13:18 | -7.29969 | 112.97532 | 10548 ft | 293 kts | 19° |
| 2026-05-08 13:18 | -7.27966 | 112.98226 | 10913 ft | 310 kts | 19° |
| 2026-05-08 13:18 | -7.25843 | 112.98968 | 11230 ft | 328 kts | 19° |
| 2026-05-08 13:19 | -7.23619 | 112.99749 | 11560 ft | 345 kts | 19° |
| 2026-05-08 13:19 | -7.21292 | 113.00568 | 12159 ft | 351 kts | 19° |
| 2026-05-08 13:19 | -7.19727 | 113.01119 | 12642 ft | 353 kts | 19° |
| 2026-05-08 13:19 | -7.17404 | 113.01939 | 13324 ft | 356 kts | 19° |
| 2026-05-08 13:20 | -7.15021 | 113.02780 | 13981 ft | 359 kts | 19° |
| 2026-05-08 13:20 | -7.12612 | 113.03632 | 14624 ft | 363 kts | 19° |
| 2026-05-08 13:20 | -7.10212 | 113.04480 | 15246 ft | 366 kts | 19° |
| 2026-05-08 13:20 | -7.07782 | 113.05339 | 15854 ft | 369 kts | 19° |
| 2026-05-08 13:21 | -7.05343 | 113.06201 | 16444 ft | 373 kts | 19° |
| 2026-05-08 13:21 | -7.02859 | 113.07079 | 17025 ft | 376 kts | 19° |
| 2026-05-08 13:21 | -7.00378 | 113.07956 | 17587 ft | 379 kts | 19° |
| 2026-05-08 13:21 | -6.97819 | 113.08861 | 18151 ft | 382 kts | 19° |
| 2026-05-08 13:22 | -6.95279 | 113.09759 | 18694 ft | 385 kts | 19° |
| 2026-05-08 13:22 | -6.93072 | 113.10538 | 19153 ft | 388 kts | 19° |
| 2026-05-08 13:22 | -6.90476 | 113.11455 | 19679 ft | 391 kts | 19° |
| 2026-05-08 13:22 | -6.87976 | 113.12337 | 20170 ft | 394 kts | 19° |
| 2026-05-08 13:23 | -6.85309 | 113.13274 | 20676 ft | 397 kts | 19° |
| 2026-05-08 13:23 | -6.82672 | 113.14201 | 21159 ft | 400 kts | 19° |
| 2026-05-08 13:23 | -6.79974 | 113.15152 | 21637 ft | 403 kts | 19° |
| 2026-05-08 13:23 | -6.77308 | 113.16092 | 22093 ft | 405 kts | 19° |
| 2026-05-08 13:24 | -6.74612 | 113.17043 | 22542 ft | 408 kts | 19° |
| 2026-05-08 13:24 | -6.71858 | 113.18015 | 22981 ft | 411 kts | 19° |
| 2026-05-08 13:24 | -6.69095 | 113.18991 | 23409 ft | 414 kts | 19° |
| 2026-05-08 13:24 | -6.66351 | 113.19960 | 23822 ft | 416 kts | 19° |
| 2026-05-08 13:25 | -6.63602 | 113.20931 | 24225 ft | 419 kts | 19° |
| 2026-05-08 13:25 | -6.60808 | 113.21916 | 24621 ft | 421 kts | 19° |
| 2026-05-08 13:25 | -6.57969 | 113.22919 | 25012 ft | 424 kts | 19° |
| 2026-05-08 13:25 | -6.55145 | 113.23916 | 25390 ft | 426 kts | 19° |
| 2026-05-08 13:26 | -6.52335 | 113.24908 | 25758 ft | 429 kts | 19° |
| 2026-05-08 13:26 | -6.51417 | 113.25233 | 25876 ft | 430 kts | 19° |
| 2026-05-08 13:26 | -6.49247 | 113.25999 | 26153 ft | 431 kts | 19° |
| 2026-05-08 13:26 | -6.46373 | 113.27013 | 26511 ft | 434 kts | 19° |
| 2026-05-08 13:27 | -6.43505 | 113.28027 | 26860 ft | 436 kts | 19° |
| 2026-05-08 13:27 | -6.40612 | 113.29050 | 27205 ft | 438 kts | 19° |
| 2026-05-08 13:27 | -6.37669 | 113.30090 | 27543 ft | 441 kts | 19° |
| 2026-05-08 13:27 | -6.34749 | 113.31124 | 27873 ft | 443 kts | 19° |
| 2026-05-08 13:28 | -6.31818 | 113.32159 | 28198 ft | 445 kts | 19° |
| 2026-05-08 13:28 | -6.28849 | 113.33207 | 28519 ft | 447 kts | 19° |
| 2026-05-08 13:28 | -6.25911 | 113.34291 | 28830 ft | 450 kts | 21° |
| 2026-05-08 13:28 | -6.22977 | 113.35550 | 29138 ft | 452 kts | 25° |
| 2026-05-08 13:29 | -6.20141 | 113.36910 | 29487 ft | 452 kts | 26° |
| 2026-05-08 13:29 | -6.17296 | 113.38300 | 29910 ft | 451 kts | 26° |
| 2026-05-08 13:29 | -6.14443 | 113.39700 | 30328 ft | 449 kts | 26° |
| 2026-05-08 13:29 | -6.11624 | 113.41082 | 30718 ft | 448 kts | 26° |
| 2026-05-08 13:30 | -6.08790 | 113.42470 | 31094 ft | 448 kts | 26° |
| 2026-05-08 13:30 | -6.05985 | 113.43842 | 31459 ft | 447 kts | 26° |
| 2026-05-08 13:30 | -6.03164 | 113.45221 | 31821 ft | 446 kts | 26° |
| 2026-05-08 13:30 | -6.00328 | 113.46606 | 32179 ft | 446 kts | 26° |
| 2026-05-08 13:31 | -5.98927 | 113.47291 | 32353 ft | 445 kts | 26° |
| 2026-05-08 13:31 | -5.96102 | 113.48670 | 32699 ft | 445 kts | 26° |
| 2026-05-08 13:31 | -5.93320 | 113.50028 | 33033 ft | 444 kts | 26° |
| 2026-05-08 13:31 | -5.90527 | 113.51392 | 33348 ft | 444 kts | 26° |
| 2026-05-08 13:32 | -5.87988 | 113.52628 | 33590 ft | 444 kts | 26° |
| 2026-05-08 13:32 | -5.85180 | 113.53989 | 33828 ft | 446 kts | 26° |
| 2026-05-08 13:32 | -5.82370 | 113.55353 | 34058 ft | 447 kts | 26° |
| 2026-05-08 13:32 | -5.79541 | 113.56728 | 34287 ft | 448 kts | 26° |
| 2026-05-08 13:33 | -5.76713 | 113.58104 | 34511 ft | 448 kts | 26° |
| 2026-05-08 13:33 | -5.73835 | 113.59506 | 34731 ft | 449 kts | 26° |
| 2026-05-08 13:33 | -5.71023 | 113.60875 | 34929 ft | 450 kts | 26° |
| 2026-05-08 13:33 | -5.68151 | 113.62276 | 34978 ft | 451 kts | 26° |
| 2026-05-08 13:34 | -5.62519 | 113.65021 | 34989 ft | 452 kts | 26° |
| 2026-05-08 13:34 | -5.56761 | 113.67853 | 34991 ft | 452 kts | 26° |
| 2026-05-08 13:35 | -5.51061 | 113.70653 | 34991 ft | 452 kts | 26° |
| 2026-05-08 13:35 | -5.45305 | 113.73466 | 34991 ft | 452 kts | 26° |
| 2026-05-08 13:36 | -5.39615 | 113.76241 | 34991 ft | 452 kts | 26° |
| 2026-05-08 13:36 | -5.33913 | 113.79018 | 34991 ft | 452 kts | 26° |
| 2026-05-08 13:37 | -5.28239 | 113.81782 | 34991 ft | 452 kts | 26° |
| 2026-05-08 13:37 | -5.22523 | 113.84566 | 34991 ft | 452 kts | 26° |
| 2026-05-08 13:38 | -5.16815 | 113.87345 | 34991 ft | 452 kts | 26° |
| 2026-05-08 13:38 | -5.11087 | 113.90134 | 34991 ft | 452 kts | 26° |
| 2026-05-08 13:39 | -5.05382 | 113.92912 | 34991 ft | 457 kts | 26° |
| 2026-05-08 13:39 | -4.99623 | 113.95715 | 34991 ft | 460 kts | 26° |
| 2026-05-08 13:40 | -4.93922 | 113.98807 | 34990 ft | 460 kts | 31° |
| 2026-05-08 13:40 | -4.88540 | 114.02320 | 34991 ft | 460 kts | 33° |
| 2026-05-08 13:41 | -4.83139 | 114.05892 | 34991 ft | 460 kts | 33° |
| 2026-05-08 13:41 | -4.77737 | 114.09467 | 34991 ft | 460 kts | 33° |
| 2026-05-08 13:42 | -4.72332 | 114.13048 | 34991 ft | 460 kts | 33° |
| 2026-05-08 13:42 | -4.66923 | 114.16630 | 34991 ft | 460 kts | 33° |
| 2026-05-08 13:43 | -4.61536 | 114.20197 | 34991 ft | 460 kts | 33° |
| 2026-05-08 13:43 | -4.56161 | 114.23757 | 34991 ft | 460 kts | 33° |
| 2026-05-08 13:44 | -4.50780 | 114.27319 | 34991 ft | 460 kts | 33° |
| 2026-05-08 13:44 | -4.45459 | 114.30842 | 34991 ft | 460 kts | 33° |
| 2026-05-08 13:45 | -4.40080 | 114.34403 | 34991 ft | 460 kts | 33° |
| 2026-05-08 13:45 | -4.34661 | 114.37988 | 34991 ft | 460 kts | 33° |
| 2026-05-08 13:46 | -4.29298 | 114.41537 | 34991 ft | 460 kts | 33° |
| 2026-05-08 13:46 | -4.23917 | 114.45097 | 34991 ft | 460 kts | 33° |
| 2026-05-08 13:47 | -4.18552 | 114.48645 | 34991 ft | 460 kts | 33° |
| 2026-05-08 13:47 | -4.13195 | 114.52187 | 34991 ft | 460 kts | 33° |
| 2026-05-08 13:48 | -4.07840 | 114.55729 | 34991 ft | 459 kts | 33° |
| 2026-05-08 13:48 | -4.02502 | 114.59257 | 34991 ft | 458 kts | 33° |
| 2026-05-08 13:49 | -3.97182 | 114.62774 | 34991 ft | 458 kts | 33° |
| 2026-05-08 13:49 | -3.91898 | 114.66272 | 34991 ft | 458 kts | 33° |
| 2026-05-08 13:50 | -3.86617 | 114.69781 | 34991 ft | 458 kts | 33° |
| 2026-05-08 13:50 | -3.82128 | 114.72745 | 34991 ft | 458 kts | 33° |
| 2026-05-08 13:51 | -3.76784 | 114.76273 | 34991 ft | 458 kts | 33° |
| 2026-05-08 13:51 | -3.71478 | 114.79776 | 34991 ft | 458 kts | 33° |
| 2026-05-08 13:52 | -3.66195 | 114.83265 | 34991 ft | 458 kts | 33° |
| 2026-05-08 13:52 | -3.60899 | 114.86761 | 34991 ft | 458 kts | 33° |
| 2026-05-08 13:53 | -3.55590 | 114.90266 | 34991 ft | 458 kts | 33° |
| 2026-05-08 13:53 | -3.50268 | 114.93779 | 34991 ft | 458 kts | 33° |
| 2026-05-08 13:54 | -3.44986 | 114.97265 | 34991 ft | 458 kts | 33° |
| 2026-05-08 13:54 | -3.39662 | 115.00778 | 34991 ft | 458 kts | 33° |
| 2026-05-08 13:55 | -3.34386 | 115.04260 | 34991 ft | 458 kts | 33° |
| 2026-05-08 13:56 | -3.26482 | 115.09474 | 34991 ft | 458 kts | 33° |
| 2026-05-08 13:56 | -3.21226 | 115.12942 | 34991 ft | 458 kts | 33° |
| 2026-05-08 13:57 | -3.15933 | 115.16433 | 34991 ft | 458 kts | 33° |
| 2026-05-08 13:57 | -3.10629 | 115.19930 | 34991 ft | 458 kts | 33° |
| 2026-05-08 13:58 | -3.05343 | 115.23416 | 34991 ft | 458 kts | 33° |
| 2026-05-08 13:58 | -3.00012 | 115.26932 | 34991 ft | 458 kts | 33° |
| 2026-05-08 13:59 | -2.94695 | 115.30437 | 34991 ft | 458 kts | 33° |
| 2026-05-08 13:59 | -2.89456 | 115.33890 | 34991 ft | 458 kts | 33° |
| 2026-05-08 14:00 | -2.84101 | 115.37401 | 34991 ft | 458 kts | 33° |
| 2026-05-08 14:00 | -2.78803 | 115.40880 | 34991 ft | 458 kts | 33° |
| 2026-05-08 14:01 | -2.73449 | 115.44405 | 34991 ft | 458 kts | 33° |
| 2026-05-08 14:01 | -2.68110 | 115.47922 | 34991 ft | 458 kts | 33° |
| 2026-05-08 14:02 | -2.62777 | 115.51437 | 34991 ft | 458 kts | 33° |
| 2026-05-08 14:02 | -2.57421 | 115.54967 | 34991 ft | 458 kts | 33° |
| 2026-05-08 14:03 | -2.52114 | 115.58464 | 34991 ft | 458 kts | 33° |
| 2026-05-08 14:03 | -2.46754 | 115.61997 | 34991 ft | 458 kts | 33° |
| 2026-05-08 14:04 | -2.41432 | 115.65507 | 34991 ft | 458 kts | 33° |
| 2026-05-08 14:04 | -2.36138 | 115.69026 | 34769 ft | 454 kts | 33° |
| 2026-05-08 14:04 | -2.33521 | 115.70760 | 34028 ft | 451 kts | 33° |
| 2026-05-08 14:05 | -2.30892 | 115.72496 | 32811 ft | 461 kts | 33° |
| 2026-05-08 14:05 | -2.28189 | 115.74275 | 31783 ft | 468 kts | 33° |
| 2026-05-08 14:05 | -2.25499 | 115.76170 | 30932 ft | 469 kts | 37° |
| 2026-05-08 14:05 | -2.22959 | 115.78220 | 30111 ft | 470 kts | 41° |
| 2026-05-08 14:06 | -2.20566 | 115.80441 | 29269 ft | 470 kts | 45° |
| 2026-05-08 14:06 | -2.18317 | 115.82801 | 28633 ft | 466 kts | 47° |
| 2026-05-08 14:06 | -2.16116 | 115.85191 | 28078 ft | 460 kts | 47° |
| 2026-05-08 14:06 | -2.13976 | 115.87528 | 27562 ft | 455 kts | 47° |
| 2026-05-08 14:07 | -2.11827 | 115.89875 | 27044 ft | 450 kts | 47° |
| 2026-05-08 14:07 | -2.09715 | 115.92175 | 26540 ft | 445 kts | 47° |
| 2026-05-08 14:07 | -2.07635 | 115.94439 | 26042 ft | 440 kts | 47° |
| 2026-05-08 14:07 | -2.05560 | 115.96693 | 25544 ft | 435 kts | 47° |
| 2026-05-08 14:08 | -2.03524 | 115.98904 | 25052 ft | 430 kts | 47° |
| 2026-05-08 14:08 | -2.01506 | 116.01096 | 24562 ft | 425 kts | 47° |
| 2026-05-08 14:08 | -1.99527 | 116.03245 | 24080 ft | 421 kts | 47° |
| 2026-05-08 14:08 | -1.97534 | 116.05409 | 23593 ft | 417 kts | 47° |
| 2026-05-08 14:09 | -1.95590 | 116.07519 | 23113 ft | 414 kts | 47° |
| 2026-05-08 14:09 | -1.93639 | 116.09638 | 22632 ft | 410 kts | 47° |
| 2026-05-08 14:09 | -1.91698 | 116.11746 | 22152 ft | 407 kts | 47° |
| 2026-05-08 14:09 | -1.89804 | 116.13801 | 21682 ft | 403 kts | 47° |
| 2026-05-08 14:10 | -1.87905 | 116.15850 | 21211 ft | 400 kts | 47° |
| 2026-05-08 14:10 | -1.85999 | 116.17905 | 20741 ft | 397 kts | 47° |
| 2026-05-08 14:10 | -1.84130 | 116.19925 | 20280 ft | 395 kts | 47° |
| 2026-05-08 14:10 | -1.82257 | 116.21955 | 19814 ft | 392 kts | 47° |
| 2026-05-08 14:11 | -1.80399 | 116.23973 | 19349 ft | 390 kts | 47° |
| 2026-05-08 14:11 | -1.78572 | 116.25960 | 18890 ft | 388 kts | 47° |
| 2026-05-08 14:11 | -1.76720 | 116.27976 | 18422 ft | 386 kts | 47° |
| 2026-05-08 14:11 | -1.74879 | 116.29979 | 17957 ft | 384 kts | 47° |
| 2026-05-08 14:12 | -1.73071 | 116.31945 | 17497 ft | 381 kts | 47° |
| 2026-05-08 14:12 | -1.71278 | 116.33894 | 17041 ft | 379 kts | 47° |
| 2026-05-08 14:12 | -1.69507 | 116.35822 | 16864 ft | 373 kts | 47° |
| 2026-05-08 14:12 | -1.67719 | 116.37776 | 16880 ft | 375 kts | 47° |
| 2026-05-08 14:13 | -1.65971 | 116.39690 | 16882 ft | 375 kts | 47° |
| 2026-05-08 14:13 | -1.64187 | 116.41644 | 16606 ft | 376 kts | 47° |
| 2026-05-08 14:13 | -1.62407 | 116.43594 | 16117 ft | 375 kts | 47° |
| 2026-05-08 14:13 | -1.60643 | 116.45529 | 15650 ft | 374 kts | 47° |
| 2026-05-08 14:14 | -1.58902 | 116.47440 | 15195 ft | 372 kts | 47° |
| 2026-05-08 14:14 | -1.57142 | 116.49369 | 14736 ft | 370 kts | 47° |
| 2026-05-08 14:14 | -1.55388 | 116.51290 | 14281 ft | 368 kts | 47° |
| 2026-05-08 14:14 | -1.53658 | 116.53197 | 14016 ft | 359 kts | 50° |
| 2026-05-08 14:15 | -1.52224 | 116.55199 | 13994 ft | 344 kts | 59° |
| 2026-05-08 14:15 | -1.51218 | 116.57259 | 13687 ft | 339 kts | 68° |
| 2026-05-08 14:15 | -1.50367 | 116.59476 | 13387 ft | 334 kts | 70° |
| 2026-05-08 14:15 | -1.49567 | 116.61663 | 13082 ft | 329 kts | 70° |
| 2026-05-08 14:16 | -1.48778 | 116.63810 | 12783 ft | 325 kts | 70° |
| 2026-05-08 14:16 | -1.47985 | 116.65950 | 12488 ft | 320 kts | 70° |
| 2026-05-08 14:16 | -1.47202 | 116.68055 | 12186 ft | 316 kts | 69° |
| 2026-05-08 14:16 | -1.46415 | 116.70156 | 11737 ft | 317 kts | 69° |
| 2026-05-08 14:17 | -1.45623 | 116.72262 | 11337 ft | 317 kts | 69° |
| 2026-05-08 14:17 | -1.44836 | 116.74349 | 10975 ft | 315 kts | 69° |
| 2026-05-08 14:17 | -1.44055 | 116.76414 | 10612 ft | 313 kts | 69° |
| 2026-05-08 14:17 | -1.43270 | 116.78488 | 10245 ft | 311 kts | 69° |
| 2026-05-08 14:18 | -1.42495 | 116.80538 | 9881 ft | 310 kts | 69° |
| 2026-05-08 14:18 | -1.41739 | 116.82585 | 9520 ft | 308 kts | 70° |
| 2026-05-08 14:18 | -1.41008 | 116.84584 | 9166 ft | 306 kts | 70° |
| 2026-05-08 14:18 | -1.40261 | 116.86629 | 8804 ft | 305 kts | 70° |
| 2026-05-08 14:19 | -1.39532 | 116.88624 | 8452 ft | 303 kts | 70° |
| 2026-05-08 14:19 | -1.38809 | 116.90599 | 8174 ft | 299 kts | 70° |
| 2026-05-08 14:19 | -1.38090 | 116.92561 | 7906 ft | 295 kts | 70° |
| 2026-05-08 14:19 | -1.37389 | 116.94474 | 7646 ft | 290 kts | 70° |
| 2026-05-08 14:20 | -1.36709 | 116.96330 | 7320 ft | 283 kts | 70° |
| 2026-05-08 14:20 | -1.36020 | 116.98216 | 6731 ft | 276 kts | 70° |
| 2026-05-08 14:20 | -1.35372 | 116.99989 | 6162 ft | 271 kts | 70° |
| 2026-05-08 14:20 | -1.34711 | 117.01801 | 5656 ft | 265 kts | 70° |
| 2026-05-08 14:21 | -1.34079 | 117.03533 | 5229 ft | 257 kts | 70° |
| 2026-05-08 14:21 | -1.33455 | 117.05243 | 4832 ft | 255 kts | 70° |
| 2026-05-08 14:21 | -1.32830 | 117.06955 | 4437 ft | 261 kts | 70° |
| 2026-05-08 14:21 | -1.32189 | 117.08708 | 4040 ft | 266 kts | 70° |
| 2026-05-08 14:22 | -1.31488 | 117.10480 | 3658 ft | 268 kts | 61° |
| 2026-05-08 14:22 | -1.30153 | 117.11769 | 3525 ft | 258 kts | 24° |
| 2026-05-08 14:22 | -1.28442 | 117.12032 | 3485 ft | 234 kts | 351° |
| 2026-05-08 14:22 | -1.26922 | 117.11525 | 3461 ft | 222 kts | 336° |
| 2026-05-08 14:23 | -1.25532 | 117.10883 | 3415 ft | 213 kts | 335° |
| 2026-05-08 14:23 | -1.24206 | 117.10272 | 3356 ft | 203 kts | 335° |
| 2026-05-08 14:23 | -1.22909 | 117.09691 | 3230 ft | 198 kts | 336° |
| 2026-05-08 14:23 | -1.21645 | 117.09140 | 3092 ft | 196 kts | 336° |
| 2026-05-08 14:24 | -1.20332 | 117.08575 | 2691 ft | 207 kts | 336° |
| 2026-05-08 14:24 | -1.19062 | 117.07860 | 2488 ft | 204 kts | 311° |
| 2026-05-08 14:24 | -1.18573 | 117.06600 | 2478 ft | 195 kts | 263° |
| 2026-05-08 14:24 | -1.19146 | 117.05357 | 2509 ft | 194 kts | 231° |
| 2026-05-08 14:25 | -1.20024 | 117.04302 | 2505 ft | 194 kts | 230° |
| 2026-05-08 14:25 | -1.20842 | 117.03187 | 2500 ft | 194 kts | 238° |
| 2026-05-08 14:25 | -1.21500 | 117.01998 | 2455 ft | 191 kts | 244° |
| 2026-05-08 14:25 | -1.22048 | 117.00806 | 2264 ft | 180 kts | 246° |
| 2026-05-08 14:26 | -1.22514 | 116.99699 | 2013 ft | 173 kts | 247° |
| 2026-05-08 14:26 | -1.22970 | 116.98598 | 1793 ft | 163 kts | 247° |
| 2026-05-08 14:26 | -1.23393 | 116.97587 | 1570 ft | 150 kts | 247° |
| 2026-05-08 14:26 | -1.23789 | 116.96647 | 1346 ft | 139 kts | 247° |
| 2026-05-08 14:27 | -1.24171 | 116.95745 | 1154 ft | 137 kts | 247° |
| 2026-05-08 14:27 | -1.24545 | 116.94859 | 968 ft | 137 kts | 247° |
| 2026-05-08 14:27 | -1.24924 | 116.93965 | 781 ft | 136 kts | 247° |
| 2026-05-08 14:27 | -1.25290 | 116.93100 | 601 ft | 136 kts | 247° |
| 2026-05-08 14:28 | -1.25661 | 116.92224 | 418 ft | 136 kts | 247° |
| 2026-05-08 14:28 | -1.26022 | 116.91370 | 241 ft | 135 kts | 247° |
| 2026-05-08 14:28 | -1.26375 | 116.90540 | 74 ft | 135 kts | 247° |
| 2026-05-08 14:28 | -1.26705 | 116.89762 | 21 ft | 118 kts | 247° |
| 2026-05-08 14:29 | -1.27226 | 116.88524 | 20 ft | 15 kts | 246° |
| 2026-05-08 14:30 | -1.27252 | 116.88459 | 20 ft | 11 kts | 258° |
| 2026-05-08 14:30 | -1.27235 | 116.88398 | 20 ft | 7 kts | 310° |
| 2026-05-08 14:30 | -1.27189 | 116.88368 | 20 ft | 10 kts | 342° |
| 2026-05-08 14:30 | -1.27107 | 116.88387 | 20 ft | 14 kts | 44° |
| 2026-05-08 14:31 | -1.27065 | 116.88474 | 20 ft | 15 kts | 67° |
| 2026-05-08 14:31 | -1.27020 | 116.88580 | 20 ft | 16 kts | 67° |
| 2026-05-08 14:31 | -1.26977 | 116.88681 | 20 ft | 16 kts | 67° |
| 2026-05-08 14:32 | -1.26894 | 116.88876 | 20 ft | 17 kts | 67° |
| 2026-05-08 14:32 | -1.26839 | 116.89006 | 20 ft | 17 kts | 67° |
| 2026-05-08 14:32 | -1.26791 | 116.89120 | 20 ft | 18 kts | 67° |
| 2026-05-08 14:32 | -1.26742 | 116.89236 | 20 ft | 18 kts | 67° |
| 2026-05-08 14:33 | -1.26694 | 116.89349 | 20 ft | 18 kts | 67° |
| 2026-05-08 14:33 | -1.26642 | 116.89470 | 20 ft | 18 kts | 67° |
| 2026-05-08 14:33 | -1.26603 | 116.89563 | 20 ft | 13 kts | 67° |
| 2026-05-08 14:33 | -1.26564 | 116.89655 | 20 ft | 14 kts | 67° |
| 2026-05-08 14:34 | -1.26528 | 116.89738 | 20 ft | 7 kts | 67° |
| 2026-05-08 14:34 | -1.26507 | 116.89771 | 20 ft | 6 kts | 32° |
| 2026-05-08 14:34 | -1.26463 | 116.89771 | 20 ft | 7 kts | 336° |
| 2026-05-08 14:34 | -1.26429 | 116.89774 | 20 ft | 6 kts | 43° |
| 2026-05-08 14:35 | -1.26408 | 116.89815 | 20 ft | 8 kts | 67° |
| 2026-05-08 14:35 | -1.26384 | 116.89871 | 20 ft | 9 kts | 67° |
| 2026-05-08 14:35 | -1.26356 | 116.89936 | 20 ft | 11 kts | 67° |
| 2026-05-08 14:35 | -1.26338 | 116.89977 | 20 ft | 2 kts | 53° |
| 2026-05-08 14:36 | -1.26316 | 116.89983 | 20 ft | 4 kts | 349° |
| 2026-05-08 14:36 | -1.26292 | 116.89974 | 20 ft | 3 kts | 338° |
| 2026-05-08 14:36 | -1.26275 | 116.89967 | 20 ft | 2 kts | 337° |
| 2026-05-08 14:36 | -1.26270 | 116.89965 | 20 ft | 1 kts | 337° |
| 2026-05-08 14:37 | -1.26265 | 116.89963 | 20 ft | 0 kts | 337° |